sensor_id;sensor_type;location;lat;lon;timestamp;P1;durP1;ratioP1;P2;durP2;ratioP2
68757;SDS011;55747;51.998;4.466;2022-11-13T00:42:25;73.35;;;46.80;;
68757;SDS011;55747;51.998;4.466;2022-11-13T00:45:10;70.90;;;47.35;;
68757;SDS011;55747;51.998;4.466;2022-11-13T00:52:29;66.32;;;43.95;;
68757;SDS011;55747;51.998;4.466;2022-11-13T01:04:53;61.13;;;41.80;;
68757;SDS011;55747;51.998;4.466;2022-11-13T01:07:34;62.55;;;40.47;;
68757;SDS011;55747;51.998;4.466;2022-11-13T01:17:16;57.38;;;37.55;;
68757;SDS011;55747;51.998;4.466;2022-11-13T01:20:10;65.63;;;42.42;;
68757;SDS011;55747;51.998;4.466;2022-11-13T01:22:38;64.68;;;41.15;;
68757;SDS011;55747;51.998;4.466;2022-11-13T01:25:13;67.10;;;44.40;;
68757;SDS011;55747;51.998;4.466;2022-11-13T01:27:42;65.45;;;41.90;;
68757;SDS011;55747;51.998;4.466;2022-11-13T01:30:08;63.15;;;42.20;;
68757;SDS011;55747;51.998;4.466;2022-11-13T01:32:34;67.78;;;43.97;;
68757;SDS011;55747;51.998;4.466;2022-11-13T01:34:59;65.63;;;42.05;;
68757;SDS011;55747;51.998;4.466;2022-11-13T01:37:24;56.45;;;38.55;;
68757;SDS011;55747;51.998;4.466;2022-11-13T01:39:50;63.20;;;40.80;;
68757;SDS011;55747;51.998;4.466;2022-11-13T01:42:15;61.50;;;38.70;;
68757;SDS011;55747;51.998;4.466;2022-11-13T01:44:51;56.35;;;37.47;;
68757;SDS011;55747;51.998;4.466;2022-11-13T01:47:18;57.08;;;37.30;;
68757;SDS011;55747;51.998;4.466;2022-11-13T01:49:45;55.75;;;36.17;;
68757;SDS011;55747;51.998;4.466;2022-11-13T01:52:23;55.35;;;35.65;;
68757;SDS011;55747;51.998;4.466;2022-11-13T01:54:55;54.28;;;36.92;;
68757;SDS011;55747;51.998;4.466;2022-11-13T01:57:27;59.38;;;36.55;;
68757;SDS011;55747;51.998;4.466;2022-11-13T01:59:54;55.25;;;36.72;;
68757;SDS011;55747;51.998;4.466;2022-11-13T02:02:24;55.57;;;37.87;;
68757;SDS011;55747;51.998;4.466;2022-11-13T02:04:49;56.15;;;37.42;;
68757;SDS011;55747;51.998;4.466;2022-11-13T02:07:15;53.72;;;36.72;;
68757;SDS011;55747;51.998;4.466;2022-11-13T02:09:47;53.95;;;36.95;;
68757;SDS011;55747;51.998;4.466;2022-11-13T02:14:51;53.47;;;36.10;;
68757;SDS011;55747;51.998;4.466;2022-11-13T02:17:19;57.15;;;36.05;;
68757;SDS011;55747;51.998;4.466;2022-11-13T02:19:49;55.73;;;36.30;;
68757;SDS011;55747;51.998;4.466;2022-11-13T02:22:23;53.60;;;35.08;;
68757;SDS011;55747;51.998;4.466;2022-11-13T02:24:55;50.95;;;34.97;;
68757;SDS011;55747;51.998;4.466;2022-11-13T02:27:29;50.97;;;35.13;;
68757;SDS011;55747;51.998;4.466;2022-11-13T02:30:09;53.42;;;34.10;;
68757;SDS011;55747;51.998;4.466;2022-11-13T02:32:45;50.20;;;33.92;;
68757;SDS011;55747;51.998;4.466;2022-11-13T02:35:12;51.55;;;33.55;;
68757;SDS011;55747;51.998;4.466;2022-11-13T02:37:41;49.45;;;34.63;;
68757;SDS011;55747;51.998;4.466;2022-11-13T02:40:07;48.13;;;33.55;;
68757;SDS011;55747;51.998;4.466;2022-11-13T02:42:33;49.15;;;32.55;;
68757;SDS011;55747;51.998;4.466;2022-11-13T02:44:58;49.22;;;32.47;;
68757;SDS011;55747;51.998;4.466;2022-11-13T02:47:23;45.88;;;31.30;;
68757;SDS011;55747;51.998;4.466;2022-11-13T02:49:49;53.03;;;33.70;;
68757;SDS011;55747;51.998;4.466;2022-11-13T02:52:14;48.95;;;31.73;;
68757;SDS011;55747;51.998;4.466;2022-11-13T02:54:39;45.97;;;31.38;;
68757;SDS011;55747;51.998;4.466;2022-11-13T02:57:05;47.35;;;31.77;;
68757;SDS011;55747;51.998;4.466;2022-11-13T02:59:30;46.40;;;31.70;;
68757;SDS011;55747;51.998;4.466;2022-11-13T03:01:55;44.30;;;30.42;;
68757;SDS011;55747;51.998;4.466;2022-11-13T03:04:23;46.47;;;31.20;;
68757;SDS011;55747;51.998;4.466;2022-11-13T03:06:49;45.13;;;31.42;;
68757;SDS011;55747;51.998;4.466;2022-11-13T03:09:14;44.67;;;30.77;;
68757;SDS011;55747;51.998;4.466;2022-11-13T03:11:39;47.67;;;30.65;;
68757;SDS011;55747;51.998;4.466;2022-11-13T03:14:07;44.78;;;30.15;;
68757;SDS011;55747;51.998;4.466;2022-11-13T03:16:33;44.90;;;29.48;;
68757;SDS011;55747;51.998;4.466;2022-11-13T03:18:58;42.08;;;29.17;;
68757;SDS011;55747;51.998;4.466;2022-11-13T03:21:24;44.08;;;30.25;;
68757;SDS011;55747;51.998;4.466;2022-11-13T03:23:49;42.30;;;28.88;;
68757;SDS011;55747;51.998;4.466;2022-11-13T03:26:15;39.83;;;28.45;;
68757;SDS011;55747;51.998;4.466;2022-11-13T03:28:41;40.67;;;27.92;;
68757;SDS011;55747;51.998;4.466;2022-11-13T03:31:07;43.83;;;29.33;;
68757;SDS011;55747;51.998;4.466;2022-11-13T03:33:32;42.08;;;27.90;;
68757;SDS011;55747;51.998;4.466;2022-11-13T03:35:58;41.33;;;28.00;;
68757;SDS011;55747;51.998;4.466;2022-11-13T03:38:23;42.35;;;27.40;;
68757;SDS011;55747;51.998;4.466;2022-11-13T03:40:49;39.60;;;26.52;;
68757;SDS011;55747;51.998;4.466;2022-11-13T03:43:14;37.38;;;26.95;;
68757;SDS011;55747;51.998;4.466;2022-11-13T03:45:42;35.92;;;25.23;;
68757;SDS011;55747;51.998;4.466;2022-11-13T03:48:09;39.78;;;26.02;;
68757;SDS011;55747;51.998;4.466;2022-11-13T03:50:35;40.35;;;26.83;;
68757;SDS011;55747;51.998;4.466;2022-11-13T03:53:00;38.10;;;26.02;;
68757;SDS011;55747;51.998;4.466;2022-11-13T03:55:26;37.55;;;24.40;;
68757;SDS011;55747;51.998;4.466;2022-11-13T03:57:51;35.35;;;24.33;;
68757;SDS011;55747;51.998;4.466;2022-11-13T04:00:16;35.60;;;24.85;;
68757;SDS011;55747;51.998;4.466;2022-11-13T04:02:42;36.92;;;25.00;;
68757;SDS011;55747;51.998;4.466;2022-11-13T04:05:07;38.22;;;24.23;;
68757;SDS011;55747;51.998;4.466;2022-11-13T04:07:33;33.75;;;24.48;;
68757;SDS011;55747;51.998;4.466;2022-11-13T04:09:58;36.92;;;24.02;;
68757;SDS011;55747;51.998;4.466;2022-11-13T04:12:24;34.58;;;22.98;;
68757;SDS011;55747;51.998;4.466;2022-11-13T04:14:49;33.08;;;23.20;;
68757;SDS011;55747;51.998;4.466;2022-11-13T04:17:15;32.63;;;22.83;;
68757;SDS011;55747;51.998;4.466;2022-11-13T04:19:40;36.13;;;23.80;;
68757;SDS011;55747;51.998;4.466;2022-11-13T04:22:05;33.85;;;22.02;;
68757;SDS011;55747;51.998;4.466;2022-11-13T04:24:31;32.95;;;22.67;;
68757;SDS011;55747;51.998;4.466;2022-11-13T04:26:56;33.90;;;22.80;;
68757;SDS011;55747;51.998;4.466;2022-11-13T04:29:21;37.78;;;22.05;;
68757;SDS011;55747;51.998;4.466;2022-11-13T04:31:47;33.40;;;21.45;;
68757;SDS011;55747;51.998;4.466;2022-11-13T04:34:12;33.67;;;22.33;;
68757;SDS011;55747;51.998;4.466;2022-11-13T04:36:37;35.10;;;22.67;;
68757;SDS011;55747;51.998;4.466;2022-11-13T04:39:03;32.33;;;22.77;;
68757;SDS011;55747;51.998;4.466;2022-11-13T04:41:28;31.67;;;21.52;;
68757;SDS011;55747;51.998;4.466;2022-11-13T04:44:12;32.10;;;21.15;;
68757;SDS011;55747;51.998;4.466;2022-11-13T04:46:37;32.80;;;21.63;;
68757;SDS011;55747;51.998;4.466;2022-11-13T04:49:03;29.98;;;21.38;;
68757;SDS011;55747;51.998;4.466;2022-11-13T04:51:28;34.10;;;22.40;;
68757;SDS011;55747;51.998;4.466;2022-11-13T04:53:55;27.90;;;20.80;;
68757;SDS011;55747;51.998;4.466;2022-11-13T04:56:20;30.25;;;21.38;;
68757;SDS011;55747;51.998;4.466;2022-11-13T04:58:52;27.75;;;19.95;;
68757;SDS011;55747;51.998;4.466;2022-11-13T05:01:20;32.70;;;20.50;;
68757;SDS011;55747;51.998;4.466;2022-11-13T05:03:48;24.95;;;19.20;;
68757;SDS011;55747;51.998;4.466;2022-11-13T05:06:21;29.42;;;19.40;;
68757;SDS011;55747;51.998;4.466;2022-11-13T05:09:21;31.10;;;20.23;;
68757;SDS011;55747;51.998;4.466;2022-11-13T05:12:09;27.88;;;19.85;;
68757;SDS011;55747;51.998;4.466;2022-11-13T05:14:51;31.08;;;20.42;;
68757;SDS011;55747;51.998;4.466;2022-11-13T05:17:20;29.42;;;19.75;;
68757;SDS011;55747;51.998;4.466;2022-11-13T05:19:52;32.00;;;20.10;;
68757;SDS011;55747;51.998;4.466;2022-11-13T05:22:21;31.13;;;20.05;;
68757;SDS011;55747;51.998;4.466;2022-11-13T05:25:20;28.75;;;20.00;;
68757;SDS011;55747;51.998;4.466;2022-11-13T05:27:48;29.05;;;20.58;;
68757;SDS011;55747;51.998;4.466;2022-11-13T05:30:37;30.73;;;19.48;;
68757;SDS011;55747;51.998;4.466;2022-11-13T05:33:13;27.58;;;18.80;;
68757;SDS011;55747;51.998;4.466;2022-11-13T05:56:01;24.65;;;17.92;;
68757;SDS011;55747;51.998;4.466;2022-11-13T05:59:43;24.60;;;16.90;;
68757;SDS011;55747;51.998;4.466;2022-11-13T06:02:46;29.23;;;18.00;;
68757;SDS011;55747;51.998;4.466;2022-11-13T08:13:56;18.30;;;14.32;;
68757;SDS011;55747;51.998;4.466;2022-11-13T08:19:50;16.17;;;12.80;;
68757;SDS011;55747;51.998;4.466;2022-11-13T08:22:41;16.98;;;12.13;;
68757;SDS011;55747;51.998;4.466;2022-11-13T08:28:31;15.57;;;11.88;;
68757;SDS011;55747;51.998;4.466;2022-11-13T08:35:01;14.32;;;10.85;;
68757;SDS011;55747;51.998;4.466;2022-11-13T08:41:31;14.37;;;11.13;;
68757;SDS011;55747;51.998;4.466;2022-11-13T08:44:06;14.27;;;11.07;;
68757;SDS011;55747;51.998;4.466;2022-11-13T08:46:32;13.80;;;10.90;;
68757;SDS011;55747;51.998;4.466;2022-11-13T08:49:36;12.95;;;10.77;;
68757;SDS011;55747;51.998;4.466;2022-11-13T08:52:02;15.70;;;10.82;;
68757;SDS011;55747;51.998;4.466;2022-11-13T08:54:37;17.00;;;11.05;;
68757;SDS011;55747;51.998;4.466;2022-11-13T08:57:06;16.60;;;10.77;;
68757;SDS011;55747;51.998;4.466;2022-11-13T08:59:41;13.77;;;10.82;;
68757;SDS011;55747;51.998;4.466;2022-11-13T09:02:08;13.82;;;10.93;;
68757;SDS011;55747;51.998;4.466;2022-11-13T09:04:36;14.25;;;10.63;;
68757;SDS011;55747;51.998;4.466;2022-11-13T09:07:07;14.07;;;9.95;;
68757;SDS011;55747;51.998;4.466;2022-11-13T09:12:59;11.95;;;9.35;;
68757;SDS011;55747;51.998;4.466;2022-11-13T09:15:35;11.55;;;8.95;;
68757;SDS011;55747;51.998;4.466;2022-11-13T09:21:52;10.70;;;8.90;;
68757;SDS011;55747;51.998;4.466;2022-11-13T09:24:18;9.85;;;8.60;;
68757;SDS011;55747;51.998;4.466;2022-11-13T09:27:08;10.93;;;8.57;;
68757;SDS011;55747;51.998;4.466;2022-11-13T09:29:37;9.75;;;8.48;;
68757;SDS011;55747;51.998;4.466;2022-11-13T09:32:02;12.05;;;8.48;;
68757;SDS011;55747;51.998;4.466;2022-11-13T09:34:28;11.00;;;8.52;;
68757;SDS011;55747;51.998;4.466;2022-11-13T09:36:54;12.65;;;8.68;;
68757;SDS011;55747;51.998;4.466;2022-11-13T09:39:19;10.15;;;8.60;;
68757;SDS011;55747;51.998;4.466;2022-11-13T09:41:47;9.43;;;8.30;;
68757;SDS011;55747;51.998;4.466;2022-11-13T09:44:19;9.60;;;8.40;;
68757;SDS011;55747;51.998;4.466;2022-11-13T09:47:04;11.82;;;8.63;;
68757;SDS011;55747;51.998;4.466;2022-11-13T09:49:42;12.20;;;8.73;;
68757;SDS011;55747;51.998;4.466;2022-11-13T09:52:14;13.57;;;8.55;;
68757;SDS011;55747;51.998;4.466;2022-11-13T09:54:44;10.95;;;8.68;;
68757;SDS011;55747;51.998;4.466;2022-11-13T10:00:20;13.05;;;8.05;;
68757;SDS011;55747;51.998;4.466;2022-11-13T10:06:17;14.43;;;8.63;;
68757;SDS011;55747;51.998;4.466;2022-11-13T10:08:48;10.63;;;8.43;;
68757;SDS011;55747;51.998;4.466;2022-11-13T10:14:13;9.90;;;8.07;;
68757;SDS011;55747;51.998;4.466;2022-11-13T10:45:56;9.40;;;7.65;;
68757;SDS011;55747;51.998;4.466;2022-11-13T10:52:26;9.35;;;7.63;;
68757;SDS011;55747;51.998;4.466;2022-11-13T11:01:36;9.40;;;7.68;;
68757;SDS011;55747;51.998;4.466;2022-11-13T11:04:06;8.88;;;7.97;;
68757;SDS011;55747;51.998;4.466;2022-11-13T11:06:36;9.13;;;7.43;;
68757;SDS011;55747;51.998;4.466;2022-11-13T11:12:23;9.68;;;7.40;;
68757;SDS011;55747;51.998;4.466;2022-11-13T11:17:21;8.02;;;7.22;;
68757;SDS011;55747;51.998;4.466;2022-11-13T11:22:50;8.20;;;7.40;;
68757;SDS011;55747;51.998;4.466;2022-11-13T11:28:25;10.75;;;7.65;;
68757;SDS011;55747;51.998;4.466;2022-11-13T11:33:36;9.60;;;7.65;;
68757;SDS011;55747;51.998;4.466;2022-11-13T11:38:53;9.30;;;7.70;;
68757;SDS011;55747;51.998;4.466;2022-11-13T11:41:29;9.70;;;7.60;;
68757;SDS011;55747;51.998;4.466;2022-11-13T11:44:02;8.68;;;7.78;;
68757;SDS011;55747;51.998;4.466;2022-11-13T11:46:29;9.32;;;8.15;;
68757;SDS011;55747;51.998;4.466;2022-11-13T11:48:58;9.50;;;7.78;;
68757;SDS011;55747;51.998;4.466;2022-11-13T11:54:10;9.88;;;8.23;;
68757;SDS011;55747;51.998;4.466;2022-11-13T11:56:50;8.87;;;8.00;;
68757;SDS011;55747;51.998;4.466;2022-11-13T12:15:48;10.38;;;9.27;;
68757;SDS011;55747;51.998;4.466;2022-11-13T12:36:58;9.47;;;8.33;;
68757;SDS011;55747;51.998;4.466;2022-11-13T12:42:12;10.43;;;8.43;;
68757;SDS011;55747;51.998;4.466;2022-11-13T12:45:48;9.48;;;7.82;;
68757;SDS011;55747;51.998;4.466;2022-11-13T12:48:20;9.40;;;8.50;;
68757;SDS011;55747;51.998;4.466;2022-11-13T12:50:55;9.75;;;8.63;;
68757;SDS011;55747;51.998;4.466;2022-11-13T12:53:25;9.55;;;8.15;;
68757;SDS011;55747;51.998;4.466;2022-11-13T12:55:59;9.20;;;8.07;;
68757;SDS011;55747;51.998;4.466;2022-11-13T12:58:30;9.35;;;8.15;;
68757;SDS011;55747;51.998;4.466;2022-11-13T13:01:00;9.52;;;8.38;;
68757;SDS011;55747;51.998;4.466;2022-11-13T13:06:15;9.35;;;8.27;;
68757;SDS011;55747;51.998;4.466;2022-11-13T13:08:52;9.02;;;8.13;;
68757;SDS011;55747;51.998;4.466;2022-11-13T13:14:17;9.68;;;8.68;;
68757;SDS011;55747;51.998;4.466;2022-11-13T13:16:45;10.23;;;8.10;;
68757;SDS011;55747;51.998;4.466;2022-11-13T13:21:52;11.70;;;8.75;;
68757;SDS011;55747;51.998;4.466;2022-11-13T13:24:31;11.20;;;8.73;;
68757;SDS011;55747;51.998;4.466;2022-11-13T13:27:01;9.70;;;8.73;;
68757;SDS011;55747;51.998;4.466;2022-11-13T13:29:44;9.13;;;8.18;;
68757;SDS011;55747;51.998;4.466;2022-11-13T13:32:12;9.60;;;8.60;;
68757;SDS011;55747;51.998;4.466;2022-11-13T13:43:15;9.50;;;8.13;;
68757;SDS011;55747;51.998;4.466;2022-11-13T13:48:48;10.43;;;8.57;;
68757;SDS011;55747;51.998;4.466;2022-11-13T13:54:31;9.38;;;8.38;;
68757;SDS011;55747;51.998;4.466;2022-11-13T13:56:58;11.27;;;8.50;;
68757;SDS011;55747;51.998;4.466;2022-11-13T13:59:31;9.07;;;8.18;;
68757;SDS011;55747;51.998;4.466;2022-11-13T14:02:00;9.10;;;8.20;;
68757;SDS011;55747;51.998;4.466;2022-11-13T14:04:27;8.63;;;7.60;;
68757;SDS011;55747;51.998;4.466;2022-11-13T14:06:58;9.40;;;8.07;;
68757;SDS011;55747;51.998;4.466;2022-11-13T14:09:26;8.90;;;8.00;;
68757;SDS011;55747;51.998;4.466;2022-11-13T14:12:00;9.38;;;8.38;;
68757;SDS011;55747;51.998;4.466;2022-11-13T14:14:30;9.75;;;8.55;;
68757;SDS011;55747;51.998;4.466;2022-11-13T14:16:57;9.73;;;8.30;;
68757;SDS011;55747;51.998;4.466;2022-11-13T14:21:55;8.97;;;7.80;;
68757;SDS011;55747;51.998;4.466;2022-11-13T14:26:50;9.50;;;8.27;;
68757;SDS011;55747;51.998;4.466;2022-11-13T14:29:38;9.15;;;8.18;;
68757;SDS011;55747;51.998;4.466;2022-11-13T14:32:09;10.05;;;8.38;;
68757;SDS011;55747;51.998;4.466;2022-11-13T14:34:41;9.07;;;8.10;;
68757;SDS011;55747;51.998;4.466;2022-11-13T14:37:15;8.75;;;7.93;;
68757;SDS011;55747;51.998;4.466;2022-11-13T14:39:46;10.43;;;8.20;;
68757;SDS011;55747;51.998;4.466;2022-11-13T14:42:15;10.18;;;8.68;;
68757;SDS011;55747;51.998;4.466;2022-11-13T14:44:43;12.57;;;8.98;;
68757;SDS011;55747;51.998;4.466;2022-11-13T14:47:25;9.38;;;8.30;;
68757;SDS011;55747;51.998;4.466;2022-11-13T14:49:52;11.63;;;8.93;;
68757;SDS011;55747;51.998;4.466;2022-11-13T14:52:19;10.25;;;8.43;;
68757;SDS011;55747;51.998;4.466;2022-11-13T14:54:45;11.57;;;8.73;;
68757;SDS011;55747;51.998;4.466;2022-11-13T14:57:11;10.75;;;8.95;;
68757;SDS011;55747;51.998;4.466;2022-11-13T14:59:38;12.48;;;9.30;;
68757;SDS011;55747;51.998;4.466;2022-11-13T15:02:08;10.30;;;8.75;;
68757;SDS011;55747;51.998;4.466;2022-11-13T15:04:35;10.88;;;9.00;;
68757;SDS011;55747;51.998;4.466;2022-11-13T15:07:01;11.07;;;9.17;;
68757;SDS011;55747;51.998;4.466;2022-11-13T15:09:28;12.55;;;9.05;;
68757;SDS011;55747;51.998;4.466;2022-11-13T15:11:55;10.00;;;8.85;;
68757;SDS011;55747;51.998;4.466;2022-11-13T15:14:21;11.10;;;9.10;;
68757;SDS011;55747;51.998;4.466;2022-11-13T15:16:47;12.18;;;9.82;;
68757;SDS011;55747;51.998;4.466;2022-11-13T15:19:22;10.82;;;9.38;;
68757;SDS011;55747;51.998;4.466;2022-11-13T15:21:53;14.35;;;9.80;;
68757;SDS011;55747;51.998;4.466;2022-11-13T15:24:19;13.30;;;10.05;;
68757;SDS011;55747;51.998;4.466;2022-11-13T15:26:44;13.57;;;9.73;;
68757;SDS011;55747;51.998;4.466;2022-11-13T15:29:10;13.65;;;9.70;;
68757;SDS011;55747;51.998;4.466;2022-11-13T15:31:36;12.68;;;9.90;;
68757;SDS011;55747;51.998;4.466;2022-11-13T15:34:04;12.45;;;9.05;;
68757;SDS011;55747;51.998;4.466;2022-11-13T15:36:30;12.43;;;8.75;;
68757;SDS011;55747;51.998;4.466;2022-11-13T15:39:08;11.80;;;9.23;;
68757;SDS011;55747;51.998;4.466;2022-11-13T15:41:37;12.05;;;9.55;;
68757;SDS011;55747;51.998;4.466;2022-11-13T15:44:04;11.02;;;9.40;;
68757;SDS011;55747;51.998;4.466;2022-11-13T15:46:37;12.73;;;9.68;;
68757;SDS011;55747;51.998;4.466;2022-11-13T15:49:03;13.00;;;10.27;;
68757;SDS011;55747;51.998;4.466;2022-11-13T15:51:36;13.50;;;10.52;;
68757;SDS011;55747;51.998;4.466;2022-11-13T15:54:12;18.10;;;14.05;;
68757;SDS011;55747;51.998;4.466;2022-11-13T15:56:41;17.77;;;12.40;;
68757;SDS011;55747;51.998;4.466;2022-11-13T15:59:11;16.35;;;11.38;;
68757;SDS011;55747;51.998;4.466;2022-11-13T16:01:37;12.15;;;9.63;;
68757;SDS011;55747;51.998;4.466;2022-11-13T16:04:03;13.30;;;10.63;;
68757;SDS011;55747;51.998;4.466;2022-11-13T16:06:29;15.57;;;10.77;;
68757;SDS011;55747;51.998;4.466;2022-11-13T16:08:58;15.70;;;10.73;;
68757;SDS011;55747;51.998;4.466;2022-11-13T16:11:23;13.93;;;10.93;;
68757;SDS011;55747;51.998;4.466;2022-11-13T16:13:49;17.52;;;10.98;;
68757;SDS011;55747;51.998;4.466;2022-11-13T16:16:18;16.15;;;11.07;;
68757;SDS011;55747;51.998;4.466;2022-11-13T16:18:47;16.35;;;11.05;;
68757;SDS011;55747;51.998;4.466;2022-11-13T16:21:17;15.30;;;10.73;;
68757;SDS011;55747;51.998;4.466;2022-11-13T16:23:44;13.77;;;10.70;;
68757;SDS011;55747;51.998;4.466;2022-11-13T16:26:13;15.52;;;11.23;;
68757;SDS011;55747;51.998;4.466;2022-11-13T16:28:42;14.15;;;11.18;;
68757;SDS011;55747;51.998;4.466;2022-11-13T16:31:13;16.00;;;12.43;;
68757;SDS011;55747;51.998;4.466;2022-11-13T16:33:45;17.92;;;13.15;;
68757;SDS011;55747;51.998;4.466;2022-11-13T16:39:11;19.88;;;13.75;;
68757;SDS011;55747;51.998;4.466;2022-11-13T16:41:42;20.75;;;13.48;;
68757;SDS011;55747;51.998;4.466;2022-11-13T16:44:08;19.17;;;13.13;;
68757;SDS011;55747;51.998;4.466;2022-11-13T16:46:34;21.48;;;13.77;;
68757;SDS011;55747;51.998;4.466;2022-11-13T16:49:07;16.73;;;13.68;;
68757;SDS011;55747;51.998;4.466;2022-11-13T16:51:43;17.83;;;13.27;;
68757;SDS011;55747;51.998;4.466;2022-11-13T16:54:10;19.58;;;13.80;;
68757;SDS011;55747;51.998;4.466;2022-11-13T16:56:38;19.30;;;14.68;;
68757;SDS011;55747;51.998;4.466;2022-11-13T16:59:04;18.58;;;14.82;;
68757;SDS011;55747;51.998;4.466;2022-11-13T17:01:32;18.52;;;14.05;;
68757;SDS011;55747;51.998;4.466;2022-11-13T17:04:18;16.73;;;12.90;;
68757;SDS011;55747;51.998;4.466;2022-11-13T17:06:52;16.50;;;12.52;;
68757;SDS011;55747;51.998;4.466;2022-11-13T17:09:27;19.67;;;13.85;;
68757;SDS011;55747;51.998;4.466;2022-11-13T17:11:55;17.90;;;13.70;;
68757;SDS011;55747;51.998;4.466;2022-11-13T17:14:21;22.45;;;14.15;;
68757;SDS011;55747;51.998;4.466;2022-11-13T17:16:47;21.83;;;15.10;;
68757;SDS011;55747;51.998;4.466;2022-11-13T17:19:12;20.85;;;15.05;;
68757;SDS011;55747;51.998;4.466;2022-11-13T17:21:38;18.13;;;14.38;;
68757;SDS011;55747;51.998;4.466;2022-11-13T17:24:04;20.20;;;15.25;;
68757;SDS011;55747;51.998;4.466;2022-11-13T17:26:29;19.77;;;14.60;;
68757;SDS011;55747;51.998;4.466;2022-11-13T17:28:55;19.35;;;14.48;;
68757;SDS011;55747;51.998;4.466;2022-11-13T17:31:23;20.80;;;14.98;;
68757;SDS011;55747;51.998;4.466;2022-11-13T17:33:50;21.80;;;15.93;;
68757;SDS011;55747;51.998;4.466;2022-11-13T17:36:19;22.90;;;16.65;;
68757;SDS011;55747;51.998;4.466;2022-11-13T17:38:45;24.45;;;16.85;;
68757;SDS011;55747;51.998;4.466;2022-11-13T17:41:14;27.88;;;18.52;;
68757;SDS011;55747;51.998;4.466;2022-11-13T17:43:40;25.08;;;17.27;;
68757;SDS011;55747;51.998;4.466;2022-11-13T17:46:13;24.98;;;17.65;;
68757;SDS011;55747;51.998;4.466;2022-11-13T17:49:35;29.05;;;18.70;;
68757;SDS011;55747;51.998;4.466;2022-11-13T17:52:01;27.40;;;18.63;;
68757;SDS011;55747;51.998;4.466;2022-11-13T17:54:27;25.50;;;18.23;;
68757;SDS011;55747;51.998;4.466;2022-11-13T17:56:56;26.52;;;19.23;;
68757;SDS011;55747;51.998;4.466;2022-11-13T17:59:26;28.85;;;19.25;;
68757;SDS011;55747;51.998;4.466;2022-11-13T18:01:51;27.70;;;18.13;;
68757;SDS011;55747;51.998;4.466;2022-11-13T18:04:17;25.08;;;18.35;;
68757;SDS011;55747;51.998;4.466;2022-11-13T18:06:42;27.55;;;18.95;;
68757;SDS011;55747;51.998;4.466;2022-11-13T18:09:11;31.23;;;18.73;;
68757;SDS011;55747;51.998;4.466;2022-11-13T18:11:39;22.80;;;16.60;;
68757;SDS011;55747;51.998;4.466;2022-11-13T18:14:07;24.67;;;17.00;;
68757;SDS011;55747;51.998;4.466;2022-11-13T18:16:40;24.60;;;17.30;;
68757;SDS011;55747;51.998;4.466;2022-11-13T18:19:11;25.52;;;16.90;;
68757;SDS011;55747;51.998;4.466;2022-11-13T18:21:44;24.27;;;17.67;;
68757;SDS011;55747;51.998;4.466;2022-11-13T18:24:13;29.20;;;18.45;;
68757;SDS011;55747;51.998;4.466;2022-11-13T18:26:46;27.63;;;20.52;;
68757;SDS011;55747;51.998;4.466;2022-11-13T18:29:26;30.58;;;20.95;;
68757;SDS011;55747;51.998;4.466;2022-11-13T18:32:09;31.75;;;21.02;;
68757;SDS011;55747;51.998;4.466;2022-11-13T18:34:34;32.80;;;20.75;;
68757;SDS011;55747;51.998;4.466;2022-11-13T18:37:01;34.45;;;22.08;;
68757;SDS011;55747;51.998;4.466;2022-11-13T18:39:26;32.08;;;21.42;;
68757;SDS011;55747;51.998;4.466;2022-11-13T18:41:52;31.38;;;22.13;;
68757;SDS011;55747;51.998;4.466;2022-11-13T18:44:17;30.65;;;20.42;;
68757;SDS011;55747;51.998;4.466;2022-11-13T18:46:43;29.60;;;19.33;;
68757;SDS011;55747;51.998;4.466;2022-11-13T18:49:08;27.83;;;19.20;;
68757;SDS011;55747;51.998;4.466;2022-11-13T18:51:33;27.67;;;19.25;;
68757;SDS011;55747;51.998;4.466;2022-11-13T18:54:03;27.38;;;19.17;;
68757;SDS011;55747;51.998;4.466;2022-11-13T18:56:30;29.25;;;18.23;;
68757;SDS011;55747;51.998;4.466;2022-11-13T18:58:57;27.98;;;18.75;;
68757;SDS011;55747;51.998;4.466;2022-11-13T19:01:24;26.67;;;18.75;;
68757;SDS011;55747;51.998;4.466;2022-11-13T19:03:52;25.77;;;18.67;;
68757;SDS011;55747;51.998;4.466;2022-11-13T19:06:19;25.17;;;19.00;;
68757;SDS011;55747;51.998;4.466;2022-11-13T19:08:46;25.25;;;18.42;;
68757;SDS011;55747;51.998;4.466;2022-11-13T19:11:13;27.17;;;18.75;;
68757;SDS011;55747;51.998;4.466;2022-11-13T19:13:41;24.15;;;18.08;;
68757;SDS011;55747;51.998;4.466;2022-11-13T19:16:13;27.83;;;19.77;;
68757;SDS011;55747;51.998;4.466;2022-11-13T19:18:40;27.20;;;19.45;;
68757;SDS011;55747;51.998;4.466;2022-11-13T19:21:19;30.70;;;20.17;;
68757;SDS011;55747;51.998;4.466;2022-11-13T19:24:03;31.75;;;21.17;;
68757;SDS011;55747;51.998;4.466;2022-11-13T19:26:32;30.17;;;19.60;;
68757;SDS011;55747;51.998;4.466;2022-11-13T19:29:15;28.10;;;19.27;;
68757;SDS011;55747;51.998;4.466;2022-11-13T19:32:39;27.40;;;19.08;;
68757;SDS011;55747;51.998;4.466;2022-11-13T19:42:41;31.75;;;20.27;;
68757;SDS011;55747;51.998;4.466;2022-11-13T19:45:55;33.15;;;20.50;;
68757;SDS011;55747;51.998;4.466;2022-11-13T20:06:18;31.63;;;20.15;;
68757;SDS011;55747;51.998;4.466;2022-11-13T20:15:38;34.25;;;21.45;;
68757;SDS011;55747;51.998;4.466;2022-11-13T20:18:18;32.42;;;21.73;;
68757;SDS011;55747;51.998;4.466;2022-11-13T20:21:24;31.05;;;21.40;;
68757;SDS011;55747;51.998;4.466;2022-11-13T20:23:51;30.60;;;20.98;;
68757;SDS011;55747;51.998;4.466;2022-11-13T20:26:18;30.33;;;20.52;;
68757;SDS011;55747;51.998;4.466;2022-11-13T20:28:44;29.48;;;20.08;;
68757;SDS011;55747;51.998;4.466;2022-11-13T20:33:41;34.50;;;19.70;;
68757;SDS011;55747;51.998;4.466;2022-11-13T20:36:07;28.85;;;19.73;;
68757;SDS011;55747;51.998;4.466;2022-11-13T20:38:33;29.02;;;20.58;;
68757;SDS011;55747;51.998;4.466;2022-11-13T20:41:01;28.13;;;19.83;;
68757;SDS011;55747;51.998;4.466;2022-11-13T20:43:28;29.20;;;19.63;;
68757;SDS011;55747;51.998;4.466;2022-11-13T20:46:05;29.23;;;19.52;;
68757;SDS011;55747;51.998;4.466;2022-11-13T20:48:33;25.90;;;18.33;;
68757;SDS011;55747;51.998;4.466;2022-11-13T20:51:15;25.77;;;18.70;;
68757;SDS011;55747;51.998;4.466;2022-11-13T20:53:43;23.92;;;17.60;;
68757;SDS011;55747;51.998;4.466;2022-11-13T20:56:11;23.27;;;16.60;;
68757;SDS011;55747;51.998;4.466;2022-11-13T20:58:38;23.38;;;16.95;;
68757;SDS011;55747;51.998;4.466;2022-11-13T21:01:09;25.50;;;17.20;;
68757;SDS011;55747;51.998;4.466;2022-11-13T21:03:39;24.52;;;16.83;;
68757;SDS011;55747;51.998;4.466;2022-11-13T21:06:10;25.40;;;16.95;;
68757;SDS011;55747;51.998;4.466;2022-11-13T21:08:40;25.40;;;17.08;;
68757;SDS011;55747;51.998;4.466;2022-11-13T21:11:06;25.15;;;16.92;;
68757;SDS011;55747;51.998;4.466;2022-11-13T21:13:34;24.42;;;16.30;;
68757;SDS011;55747;51.998;4.466;2022-11-13T21:16:06;23.00;;;16.60;;
68757;SDS011;55747;51.998;4.466;2022-11-13T21:18:38;21.67;;;16.48;;
68757;SDS011;55747;51.998;4.466;2022-11-13T21:21:04;23.40;;;16.70;;
68757;SDS011;55747;51.998;4.466;2022-11-13T21:23:29;25.08;;;17.38;;
68757;SDS011;55747;51.998;4.466;2022-11-13T21:26:01;26.85;;;17.98;;
68757;SDS011;55747;51.998;4.466;2022-11-13T21:28:29;26.92;;;18.63;;
68757;SDS011;55747;51.998;4.466;2022-11-13T21:30:59;27.67;;;19.70;;
68757;SDS011;55747;51.998;4.466;2022-11-13T21:33:25;33.03;;;20.65;;
68757;SDS011;55747;51.998;4.466;2022-11-13T21:35:51;33.25;;;20.15;;